createdAt,value
2023-01-26T00:00:02.937Z,30.55
2023-01-26T00:02:50.082Z,31.40
2023-01-26T00:05:40.674Z,32.08
2023-01-26T00:08:28.022Z,34.00
2023-01-26T00:11:18.445Z,29.82
2023-01-26T00:14:05.554Z,29.50
2023-01-26T00:16:54.264Z,34.58
2023-01-26T00:19:41.638Z,29.40
2023-01-26T00:22:29.237Z,30.35
2023-01-26T00:25:16.593Z,36.13
2023-01-26T00:28:03.805Z,32.25
2023-01-26T00:30:50.982Z,31.60
2023-01-26T00:33:37.954Z,28.62
2023-01-26T00:36:25.454Z,36.05
2023-01-26T00:39:12.745Z,31.70
2023-01-26T00:42:09.972Z,32.55
2023-01-26T00:44:57.275Z,33.35
2023-01-26T00:47:44.844Z,33.58
2023-01-26T00:50:33.004Z,32.58
2023-01-26T00:53:20.344Z,35.23
2023-01-26T00:56:08.504Z,32.65
2023-01-26T00:58:55.713Z,31.35
2023-01-26T01:01:43.217Z,32.53
2023-01-26T01:04:31.372Z,31.65
2023-01-26T01:07:18.594Z,28.17
2023-01-26T01:10:06.219Z,30.12
2023-01-26T01:12:53.671Z,31.02
2023-01-26T01:15:43.885Z,28.40
2023-01-26T01:18:31.489Z,27.17
2023-01-26T01:21:19.185Z,24.40
2023-01-26T01:24:06.831Z,20.37
2023-01-26T01:26:53.897Z,18.77
2023-01-26T01:29:41.507Z,18.42
2023-01-26T01:32:28.455Z,18.07
2023-01-26T01:35:15.969Z,21.15
2023-01-26T01:38:03.523Z,22.62
2023-01-26T01:40:50.823Z,16.30
2023-01-26T01:43:38.587Z,15.25
2023-01-26T01:46:37.673Z,17.92
2023-01-26T01:49:33.330Z,15.65
2023-01-26T01:52:25.375Z,13.53
2023-01-26T01:55:16.064Z,12.68
2023-01-26T01:58:05.048Z,17.82
2023-01-26T02:00:52.336Z,16.12
2023-01-26T02:03:41.707Z,13.90
2023-01-26T02:06:38.045Z,10.60
2023-01-26T02:09:46.292Z,13.43
2023-01-26T02:12:34.594Z,12.98
2023-01-26T02:15:21.726Z,11.40
2023-01-26T02:18:10.919Z,11.97
2023-01-26T02:21:04.136Z,14.03
2023-01-26T02:24:15.435Z,12.33
2023-01-26T02:27:03.245Z,13.03
2023-01-26T02:29:51.669Z,14.35
2023-01-26T02:32:39.253Z,12.98
2023-01-26T02:35:26.841Z,11.90
2023-01-26T02:38:14.117Z,11.57
2023-01-26T02:41:04.795Z,10.25
2023-01-26T02:43:52.323Z,9.45
2023-01-26T02:46:39.670Z,9.20
2023-01-26T02:49:44.813Z,8.88
2023-01-26T02:52:32.323Z,8.80
2023-01-26T02:55:29.669Z,11.30
2023-01-26T02:58:16.801Z,9.90
2023-01-26T03:01:04.580Z,8.33
2023-01-26T03:03:51.644Z,10.72
2023-01-26T03:06:38.866Z,10.78
2023-01-26T03:09:26.226Z,9.58
2023-01-26T03:12:13.471Z,11.22
2023-01-26T03:15:18.355Z,9.48
2023-01-26T03:18:26.266Z,10.18
2023-01-26T03:21:35.039Z,11.85
2023-01-26T03:24:40.489Z,11.60
2023-01-26T03:27:28.276Z,9.58
2023-01-26T03:30:18.185Z,12.80
2023-01-26T03:33:05.236Z,12.68
2023-01-26T03:35:55.062Z,12.37
2023-01-26T03:38:42.448Z,13.53
2023-01-26T03:41:47.464Z,11.97
2023-01-26T03:44:52.620Z,15.10
2023-01-26T03:47:57.818Z,14.63
2023-01-26T03:51:02.910Z,16.48
2023-01-26T03:54:08.269Z,14.18
2023-01-26T03:56:55.735Z,18.65
2023-01-26T03:59:43.208Z,16.90
2023-01-26T04:02:48.050Z,16.25
2023-01-26T04:05:52.931Z,16.25
2023-01-26T04:08:40.259Z,17.15
2023-01-26T04:11:27.545Z,18.50
2023-01-26T04:14:36.356Z,20.32
2023-01-26T04:17:40.879Z,19.12
2023-01-26T04:20:46.033Z,15.60
2023-01-26T04:23:33.279Z,14.43
2023-01-26T04:26:20.234Z,14.98
2023-01-26T04:29:10.255Z,16.23
2023-01-26T04:31:57.591Z,12.05
2023-01-26T04:34:44.892Z,10.78
2023-01-26T04:37:32.108Z,15.38
2023-01-26T04:40:20.720Z,12.93
2023-01-26T04:43:07.889Z,13.98
2023-01-26T04:46:03.012Z,12.40
2023-01-26T04:48:50.547Z,13.43
2023-01-26T04:51:37.875Z,14.85
2023-01-26T04:54:25.044Z,14.45
2023-01-26T04:57:12.368Z,12.20
2023-01-26T04:59:59.597Z,12.90
2023-01-26T05:02:46.881Z,9.85
2023-01-26T05:05:38.761Z,12.88
2023-01-26T05:08:26.386Z,9.40
2023-01-26T05:11:13.681Z,11.97
2023-01-26T05:14:00.817Z,13.08
2023-01-26T05:16:48.035Z,9.78
2023-01-26T05:19:36.041Z,9.80
2023-01-26T05:22:23.543Z,14.70
2023-01-26T05:25:11.641Z,12.07
2023-01-26T05:27:59.096Z,10.28
2023-01-26T05:30:47.368Z,10.15
2023-01-26T05:33:34.356Z,9.88
2023-01-26T05:36:21.569Z,11.10
2023-01-26T05:39:09.559Z,11.97
2023-01-26T05:41:57.201Z,11.48
2023-01-26T05:44:44.228Z,10.53
2023-01-26T05:47:31.651Z,14.23
2023-01-26T05:50:19.176Z,11.80
2023-01-26T05:53:06.578Z,9.78
2023-01-26T05:55:53.640Z,9.88
2023-01-26T05:58:41.003Z,10.82
2023-01-26T06:01:28.198Z,12.50
2023-01-26T06:04:15.488Z,11.22
2023-01-26T06:07:03.015Z,10.65
2023-01-26T06:09:50.180Z,8.90
2023-01-26T06:12:38.627Z,10.00
2023-01-26T06:15:26.137Z,11.03
2023-01-26T06:18:13.503Z,9.45
2023-01-26T06:21:01.356Z,10.50
2023-01-26T06:23:48.508Z,8.38
2023-01-26T06:26:35.799Z,11.90
2023-01-26T06:29:23.161Z,11.43
2023-01-26T06:32:13.232Z,11.48
2023-01-26T06:35:00.832Z,12.05
2023-01-26T06:37:51.337Z,12.55
2023-01-26T06:40:38.694Z,13.15
2023-01-26T06:43:25.746Z,12.88
2023-01-26T06:46:14.052Z,16.42
2023-01-26T06:49:03.705Z,11.97
2023-01-26T06:52:03.090Z,13.60
2023-01-26T06:54:51.336Z,11.68
2023-01-26T06:57:38.341Z,13.20
2023-01-26T07:00:25.587Z,11.68
2023-01-26T07:03:12.923Z,11.35
2023-01-26T07:05:59.931Z,11.40
2023-01-26T07:08:47.303Z,10.60
2023-01-26T07:11:34.519Z,9.55
2023-01-26T07:14:21.614Z,9.63
2023-01-26T07:17:08.768Z,10.30
2023-01-26T07:19:56.029Z,11.30
2023-01-26T07:22:43.308Z,9.18
2023-01-26T07:25:30.555Z,9.60
2023-01-26T07:28:17.933Z,14.75
2023-01-26T07:31:06.885Z,12.18
2023-01-26T07:33:53.691Z,10.60
2023-01-26T07:36:40.805Z,11.85
2023-01-26T07:39:28.558Z,9.78
2023-01-26T07:42:15.582Z,12.03
2023-01-26T07:45:03.151Z,10.03
2023-01-26T07:47:50.431Z,9.50
2023-01-26T07:50:38.080Z,10.13
2023-01-26T07:53:26.939Z,10.05
2023-01-26T07:56:16.267Z,15.98
2023-01-26T07:59:03.965Z,15.63
2023-01-26T08:01:52.096Z,13.50
2023-01-26T08:04:39.023Z,9.33
2023-01-26T08:07:26.323Z,11.18
2023-01-26T08:10:14.534Z,11.53
2023-01-26T08:13:02.178Z,11.88
2023-01-26T08:15:49.141Z,10.23
2023-01-26T08:18:36.542Z,11.00
2023-01-26T08:21:23.720Z,10.08
2023-01-26T08:24:13.160Z,11.57
2023-01-26T08:27:00.296Z,10.25
2023-01-26T08:29:47.282Z,10.40
2023-01-26T08:32:35.141Z,8.80
2023-01-26T08:35:22.965Z,10.72
2023-01-26T08:38:10.196Z,11.55
2023-01-26T08:40:57.594Z,13.32
2023-01-26T08:43:44.830Z,11.20
2023-01-26T08:46:32.245Z,11.05
2023-01-26T08:49:19.414Z,10.50
2023-01-26T08:52:06.599Z,11.43
2023-01-26T08:54:53.872Z,13.43
2023-01-26T08:57:41.613Z,12.43
2023-01-26T09:00:30.390Z,14.38
2023-01-26T09:03:17.605Z,12.13
2023-01-26T09:06:06.844Z,10.78
2023-01-26T09:08:53.940Z,10.18
2023-01-26T09:11:41.683Z,14.53
2023-01-26T09:14:28.941Z,11.30
2023-01-26T09:17:16.385Z,14.07
2023-01-26T09:20:04.525Z,14.28
2023-01-26T09:22:52.008Z,12.13
2023-01-26T09:25:40.743Z,11.40
2023-01-26T09:28:27.705Z,13.20
2023-01-26T09:31:15.056Z,11.70
2023-01-26T09:34:02.533Z,13.50
2023-01-26T09:36:49.901Z,12.43
2023-01-26T09:39:36.987Z,13.32
2023-01-26T09:42:48.253Z,13.93
2023-01-26T09:45:38.875Z,14.20
2023-01-26T09:48:44.251Z,13.10
2023-01-26T09:52:03.353Z,14.53
2023-01-26T09:54:53.297Z,13.75
2023-01-26T09:57:49.301Z,14.20
2023-01-26T10:00:42.274Z,15.65
2023-01-26T10:03:50.570Z,14.30
2023-01-26T10:06:38.878Z,17.82
2023-01-26T10:09:30.691Z,18.87
2023-01-26T10:12:29.164Z,16.93
2023-01-26T10:15:25.756Z,18.40
2023-01-26T10:18:15.878Z,17.02
2023-01-26T10:21:06.329Z,16.12
2023-01-26T10:23:53.870Z,16.60
2023-01-26T10:26:41.573Z,17.55
2023-01-26T10:29:28.710Z,18.82
2023-01-26T10:32:18.460Z,17.80
2023-01-26T10:35:06.011Z,16.23
2023-01-26T10:37:53.760Z,16.93
2023-01-26T10:40:45.378Z,16.45
2023-01-26T10:43:38.616Z,15.28
2023-01-26T10:46:40.163Z,18.45
2023-01-26T10:49:28.175Z,18.98
2023-01-26T10:52:24.774Z,16.40
2023-01-26T10:58:01.630Z,17.62
2023-01-26T11:00:51.750Z,17.12
2023-01-26T11:03:40.050Z,14.80
2023-01-26T11:06:30.324Z,15.83
2023-01-26T11:09:24.272Z,17.87
2023-01-26T11:12:14.524Z,15.13
2023-01-26T11:15:05.746Z,16.25
2023-01-26T11:17:57.860Z,15.28
2023-01-26T11:20:54.210Z,13.50
2023-01-26T11:24:08.564Z,14.73
2023-01-26T11:27:07.300Z,17.90
2023-01-26T11:30:14.051Z,12.18
2023-01-26T11:33:04.186Z,13.28
2023-01-26T11:36:00.385Z,13.32
2023-01-26T11:39:05.932Z,11.20
2023-01-26T11:42:08.047Z,12.55
2023-01-26T11:45:01.392Z,15.53
2023-01-26T11:47:54.053Z,14.15
2023-01-26T11:50:44.164Z,12.45
2023-01-26T11:53:58.318Z,13.85
2023-01-26T11:56:57.461Z,17.12
2023-01-26T11:59:54.673Z,14.93
2023-01-26T12:02:44.150Z,12.80
2023-01-26T12:05:46.405Z,15.25
2023-01-26T12:08:45.740Z,13.90
2023-01-26T12:11:41.191Z,15.10
2023-01-26T12:14:40.511Z,13.90
2023-01-26T12:17:40.094Z,16.65
2023-01-26T12:20:42.327Z,22.35
2023-01-26T12:23:50.738Z,13.85
2023-01-26T12:26:40.799Z,15.98
2023-01-26T12:29:48.675Z,17.27
2023-01-26T12:32:35.815Z,17.80
2023-01-26T12:35:34.990Z,17.27
2023-01-26T12:38:31.313Z,18.85
2023-01-26T12:41:21.744Z,19.95
2023-01-26T12:44:30.156Z,18.90
2023-01-26T12:47:26.346Z,28.85
2023-01-26T12:50:19.254Z,22.07
2023-01-26T12:53:21.175Z,19.62
2023-01-26T12:56:14.112Z,19.32
2023-01-26T12:59:04.029Z,20.95
2023-01-26T13:01:51.011Z,21.02
2023-01-26T13:04:39.848Z,21.33
2023-01-26T13:07:38.444Z,36.05
2023-01-26T13:10:29.142Z,24.27
2023-01-26T13:13:19.427Z,25.82
2023-01-26T13:16:22.719Z,22.05
2023-01-26T13:19:13.219Z,25.88
2023-01-26T13:22:00.198Z,23.40
2023-01-26T13:24:49.609Z,20.57
2023-01-26T13:27:42.548Z,18.27
2023-01-26T13:30:35.650Z,27.10
2023-01-26T13:33:25.338Z,18.67
2023-01-26T13:36:18.537Z,22.60
2023-01-26T13:39:15.091Z,23.95
2023-01-26T13:42:02.826Z,22.80
2023-01-26T13:44:53.131Z,23.07
2023-01-26T13:47:43.553Z,20.88
2023-01-26T13:50:39.276Z,22.27
2023-01-26T13:53:57.037Z,22.17
2023-01-26T13:57:06.812Z,23.62
2023-01-26T13:59:59.797Z,25.15
2023-01-26T14:02:49.794Z,23.73
2023-01-26T14:05:36.961Z,20.35
2023-01-26T14:08:25.645Z,27.17
2023-01-26T14:11:19.625Z,21.85
2023-01-26T14:14:07.403Z,26.25
2023-01-26T14:16:55.000Z,24.67
2023-01-26T14:19:42.993Z,19.23
2023-01-26T14:22:30.765Z,24.52
2023-01-26T14:25:20.689Z,23.38
2023-01-26T14:28:09.467Z,23.75
2023-01-26T14:31:02.529Z,24.30
2023-01-26T14:33:55.950Z,20.62
2023-01-26T14:36:43.071Z,26.68
2023-01-26T14:39:30.135Z,24.63
2023-01-26T14:42:20.892Z,24.67
2023-01-26T14:45:13.413Z,22.95
2023-01-26T14:48:04.088Z,22.67
2023-01-26T14:50:51.852Z,23.42
2023-01-26T14:53:39.213Z,25.97
2023-01-26T14:56:34.766Z,24.50
2023-01-26T14:59:38.386Z,25.48
2023-01-26T15:02:28.815Z,23.15
2023-01-26T15:05:18.750Z,26.62
2023-01-26T15:08:08.564Z,26.50
2023-01-26T15:11:05.437Z,28.10
2023-01-26T15:13:56.962Z,27.67
2023-01-26T15:16:54.541Z,26.68
2023-01-26T15:19:42.486Z,32.17
2023-01-26T15:22:29.592Z,26.68
2023-01-26T15:25:23.328Z,33.30
2023-01-26T15:28:25.848Z,30.50
2023-01-26T15:31:16.048Z,25.82
2023-01-26T15:34:03.637Z,28.12
2023-01-26T15:36:52.298Z,30.75
2023-01-26T15:39:39.824Z,37.78
2023-01-26T15:42:30.379Z,30.17
2023-01-26T15:45:23.538Z,29.75
2023-01-26T15:48:10.973Z,30.72
2023-01-26T15:50:58.052Z,34.95
2023-01-26T15:53:45.479Z,29.72
2023-01-26T15:56:33.229Z,32.98
2023-01-26T15:59:20.504Z,31.23
2023-01-26T16:02:21.577Z,32.67
2023-01-26T16:05:11.952Z,32.08
2023-01-26T16:07:59.349Z,33.15
2023-01-26T16:10:46.673Z,36.85
2023-01-26T16:13:34.211Z,30.45
2023-01-26T16:16:21.397Z,33.38
2023-01-26T16:19:08.738Z,34.05
2023-01-26T16:21:55.910Z,35.83
2023-01-26T16:24:43.701Z,30.02
2023-01-26T16:27:30.895Z,33.02
2023-01-26T16:30:19.657Z,39.33
2023-01-26T16:33:06.685Z,35.33
2023-01-26T16:35:54.638Z,31.75
2023-01-26T16:38:42.624Z,32.35
2023-01-26T16:41:32.629Z,32.33
2023-01-26T16:44:21.973Z,34.18
2023-01-26T16:47:10.909Z,34.20
2023-01-26T16:49:58.627Z,35.48
2023-01-26T16:52:46.107Z,33.95
2023-01-26T16:55:33.436Z,41.98
2023-01-26T16:58:21.642Z,31.25
2023-01-26T17:01:17.937Z,36.25
2023-01-26T17:04:05.679Z,34.92
2023-01-26T17:06:53.048Z,35.98
2023-01-26T17:09:40.468Z,38.08
2023-01-26T17:12:27.594Z,34.58
2023-01-26T17:15:15.185Z,36.10
2023-01-26T17:18:02.641Z,37.98
2023-01-26T17:20:50.134Z,35.30
2023-01-26T17:23:38.573Z,30.15
2023-01-26T17:26:25.901Z,34.03
2023-01-26T17:29:14.841Z,38.78
2023-01-26T17:32:02.042Z,32.10
2023-01-26T17:34:49.989Z,31.00
2023-01-26T17:37:38.012Z,36.48
2023-01-26T17:40:25.166Z,33.75
2023-01-26T17:43:13.238Z,36.28
2023-01-26T17:46:11.466Z,38.78
2023-01-26T17:48:58.344Z,37.88
2023-01-26T17:51:46.852Z,38.95
2023-01-26T17:54:34.304Z,39.23
2023-01-26T17:57:21.735Z,38.78
2023-01-26T18:00:11.357Z,36.08
2023-01-26T18:02:58.889Z,38.20
2023-01-26T18:05:53.343Z,36.33
2023-01-26T18:08:41.094Z,35.90
2023-01-26T18:11:28.796Z,33.58
2023-01-26T18:14:16.113Z,36.70
2023-01-26T18:17:03.424Z,30.80
2023-01-26T18:19:50.734Z,33.42
2023-01-26T18:22:38.072Z,34.55
2023-01-26T18:25:25.336Z,32.90
2023-01-26T18:28:13.196Z,36.88
2023-01-26T18:31:02.320Z,35.50
2023-01-26T18:33:50.226Z,32.33
2023-01-26T18:36:37.610Z,39.48
2023-01-26T18:39:24.927Z,33.28
2023-01-26T18:42:12.645Z,34.30
2023-01-26T18:45:03.124Z,33.25
2023-01-26T18:47:51.025Z,31.35
2023-01-26T18:50:38.847Z,35.70
2023-01-26T18:53:26.495Z,38.35
2023-01-26T18:56:15.896Z,35.52
2023-01-26T18:59:03.209Z,33.70
2023-01-26T19:01:50.939Z,32.65
2023-01-26T19:04:39.096Z,36.10
2023-01-26T19:07:26.436Z,35.13
2023-01-26T19:10:13.914Z,36.17
2023-01-26T19:13:01.309Z,30.00
2023-01-26T19:15:50.160Z,38.17
2023-01-26T19:18:37.190Z,34.78
2023-01-26T19:21:25.228Z,34.10
2023-01-26T19:24:12.378Z,38.00
2023-01-26T19:26:59.746Z,34.92
2023-01-26T19:29:46.944Z,40.95
2023-01-26T19:32:34.400Z,40.70
2023-01-26T19:35:21.973Z,35.85
2023-01-26T19:38:09.365Z,34.98
2023-01-26T19:40:56.691Z,38.92
2023-01-26T19:43:44.421Z,37.03
2023-01-26T19:46:31.823Z,38.33
2023-01-26T19:49:20.895Z,34.43
2023-01-26T19:52:07.964Z,37.60
2023-01-26T19:54:55.057Z,32.40
2023-01-26T19:57:42.268Z,37.17
2023-01-26T20:00:29.572Z,37.13
2023-01-26T20:03:16.670Z,36.53
2023-01-26T20:06:04.638Z,41.23
2023-01-26T20:08:52.456Z,33.45
2023-01-26T20:11:40.268Z,42.85
2023-01-26T20:14:27.488Z,35.30
2023-01-26T20:17:14.859Z,33.02
2023-01-26T20:20:02.633Z,36.50
2023-01-26T20:22:49.986Z,36.63
2023-01-26T20:25:37.544Z,40.75
2023-01-26T20:28:24.602Z,34.65
2023-01-26T20:31:16.471Z,37.85
2023-01-26T20:34:03.405Z,35.88
2023-01-26T20:36:50.856Z,33.00
2023-01-26T20:39:38.931Z,37.03
2023-01-26T20:42:26.468Z,38.98
2023-01-26T20:45:14.720Z,33.18
2023-01-26T20:48:02.104Z,41.73
2023-01-26T20:50:49.552Z,36.58
2023-01-26T20:53:36.551Z,33.92
2023-01-26T20:56:23.780Z,36.85
2023-01-26T20:59:12.399Z,40.88
2023-01-26T21:01:59.798Z,43.50
2023-01-26T21:04:47.532Z,39.58
2023-01-26T21:07:34.968Z,34.78
2023-01-26T21:10:22.355Z,43.05
2023-01-26T21:13:09.395Z,38.28
2023-01-26T21:15:57.004Z,40.28
2023-01-26T21:18:45.260Z,36.75
2023-01-26T21:21:32.363Z,36.13
2023-01-26T21:24:19.462Z,43.40
2023-01-26T21:27:06.728Z,41.13
2023-01-26T21:29:53.810Z,38.42
2023-01-26T21:32:41.236Z,37.25
2023-01-26T21:35:28.775Z,38.35
2023-01-26T21:38:16.359Z,35.63
2023-01-26T21:41:26.653Z,38.45
2023-01-26T21:44:17.235Z,37.73
2023-01-26T21:47:04.907Z,38.42
2023-01-26T21:49:53.627Z,40.55
2023-01-26T21:52:58.951Z,41.83
2023-01-26T21:55:47.633Z,44.03
2023-01-26T21:58:52.880Z,43.68
2023-01-26T22:01:43.728Z,42.80
2023-01-26T22:04:31.762Z,38.10
2023-01-26T22:07:19.255Z,40.75
2023-01-26T22:10:06.998Z,38.17
2023-01-26T22:12:54.395Z,40.88
2023-01-26T22:15:41.671Z,41.55
2023-01-26T22:18:29.188Z,38.00
2023-01-26T22:21:16.894Z,38.42
2023-01-26T22:24:04.591Z,38.73
2023-01-26T22:26:51.542Z,40.20
2023-01-26T22:29:38.765Z,43.95
2023-01-26T22:32:26.346Z,42.17
2023-01-26T22:35:13.476Z,39.27
2023-01-26T22:38:01.559Z,39.42
2023-01-26T22:40:48.344Z,40.20
2023-01-26T22:43:35.851Z,37.03
2023-01-26T22:46:25.312Z,36.63
2023-01-26T22:49:12.269Z,40.58
2023-01-26T22:51:59.796Z,40.12
2023-01-26T22:54:46.944Z,43.48
2023-01-26T22:57:33.906Z,40.75
2023-01-26T23:00:21.106Z,41.80
2023-01-26T23:03:08.527Z,37.03
2023-01-26T23:06:01.713Z,37.90
2023-01-26T23:08:49.120Z,36.23
2023-01-26T23:11:36.603Z,36.68
2023-01-26T23:14:23.986Z,33.90
2023-01-26T23:17:11.747Z,39.25
2023-01-26T23:19:58.938Z,31.85
2023-01-26T23:22:45.954Z,35.52
2023-01-26T23:25:51.127Z,39.75
2023-01-26T23:28:41.129Z,33.88
2023-01-26T23:31:28.304Z,35.23
2023-01-26T23:34:15.577Z,36.68
2023-01-26T23:37:03.019Z,32.28
2023-01-26T23:39:50.085Z,34.58
2023-01-26T23:42:55.757Z,32.42
2023-01-26T23:45:26.330Z,29.95
2023-01-26T23:48:14.370Z,30.43
2023-01-26T23:51:04.967Z,30.10
2023-01-26T23:53:52.276Z,33.95
2023-01-26T23:56:39.473Z,34.60
2023-01-26T23:59:26.657Z,33.15
